Time;durP1;ratioP1;P1;durP2;ratioP2;P2;SDS_P1;SDS_P2;PMS_P1;PMS_P2;Temp;Humidity;BMP_temperature;BMP_pressure;BME280_temperature;BME280_humidity;BME280_pressure;Samples;Min_cycle;Max_cycle;Signal;HPM_P1;HPM_P2
2024/02/19 00:01:41;;;;;;;14.57;5.45;;;8.90;99.90;;;;;;5029115;28;20034;-46
2024/02/19 00:04:07;;;;;;;15.77;6.05;;;8.80;99.90;;;;;;5030772;28;20036;-47
2024/02/19 00:06:34;;;;;;;23.08;5.97;;;8.80;99.90;;;;;;5034689;28;20113;-48
2024/02/19 00:09:00;;;;;;;14.90;6.53;;;8.80;99.90;;;;;;5031188;28;20034;-46
2024/02/19 00:11:26;;;;;;;19.30;6.15;;;8.80;99.90;;;;;;5033819;28;20022;-46
2024/02/19 00:13:52;;;;;;;17.60;6.45;;;8.80;99.90;;;;;;5029001;28;20033;-46
2024/02/19 00:16:19;;;;;;;11.18;5.70;;;8.80;99.90;;;;;;5027732;28;20069;-46
2024/02/19 00:18:45;;;;;;;13.45;6.53;;;8.80;99.90;;;;;;5032574;28;20447;-46
2024/02/19 00:21:10;;;;;;;17.13;5.57;;;8.80;99.90;;;;;;5028324;28;20057;-47
2024/02/19 00:23:36;;;;;;;18.90;5.95;;;8.80;99.90;;;;;;5030842;28;20037;-48
2024/02/19 00:26:02;;;;;;;16.52;7.13;;;8.80;99.90;;;;;;5031482;28;20025;-49
2024/02/19 00:28:29;;;;;;;15.82;5.68;;;8.80;99.90;;;;;;5022051;28;20041;-49
2024/02/19 00:30:55;;;;;;;11.60;5.82;;;8.80;99.90;;;;;;5031329;28;20018;-46
2024/02/19 00:46:49;;;;;;;15.55;5.93;;;8.70;99.90;;;;;;5032923;28;20497;-47
2024/02/19 00:49:14;;;;;;;14.95;5.90;;;8.70;99.90;;;;;;5029307;28;20018;-50
2024/02/19 00:51:42;;;;;;;12.27;5.28;;;8.70;99.90;;;;;;5034551;28;20434;-46
2024/02/19 00:54:07;;;;;;;13.88;5.38;;;8.60;99.90;;;;;;5034166;28;20044;-50
2024/02/19 00:56:33;;;;;;;8.75;4.18;;;8.60;99.90;;;;;;5036570;28;20029;-49
2024/02/19 00:58:58;;;;;;;10.80;4.82;;;8.60;99.90;;;;;;5028120;28;20033;-46
2024/02/19 01:01:24;;;;;;;8.40;5.05;;;8.60;99.90;;;;;;5028109;28;20124;-46
2024/02/19 01:03:49;;;;;;;8.82;5.03;;;8.60;99.90;;;;;;5028553;28;20057;-46
2024/02/19 01:06:15;;;;;;;11.68;5.57;;;8.60;99.90;;;;;;5029857;28;20034;-48
2024/02/19 01:08:40;;;;;;;9.27;4.93;;;8.60;99.90;;;;;;5030630;28;20036;-46
2024/02/19 01:11:06;;;;;;;12.93;5.80;;;8.60;99.90;;;;;;5029944;28;20025;-46
2024/02/19 01:13:32;;;;;;;15.93;6.57;;;8.50;99.90;;;;;;5031678;28;20029;-48
2024/02/19 01:15:57;;;;;;;14.23;6.22;;;8.50;99.90;;;;;;5028277;28;20029;-46
2024/02/19 01:18:23;;;;;;;21.58;6.72;;;8.50;99.90;;;;;;5029974;28;20119;-46
2024/02/19 01:20:48;;;;;;;12.35;6.30;;;8.50;99.90;;;;;;5025447;28;20041;-46
2024/02/19 01:23:16;;;;;;;13.57;7.07;;;8.50;99.90;;;;;;5024602;28;20025;-47
2024/02/19 01:25:42;;;;;;;11.90;6.45;;;8.40;99.90;;;;;;5022526;28;20034;-49
2024/02/19 01:28:08;;;;;;;17.23;7.28;;;8.40;99.90;;;;;;5000126;28;20586;-46
2024/02/19 01:30:33;;;;;;;20.75;7.80;;;8.40;99.90;;;;;;5009320;28;20028;-48
2024/02/19 01:33:01;;;;;;;18.10;7.05;;;8.40;99.90;;;;;;5023566;28;20033;-46
2024/02/19 01:35:27;;;;;;;17.73;7.00;;;8.40;99.90;;;;;;5024047;28;20044;-50
2024/02/19 01:37:52;;;;;;;21.13;7.70;;;8.40;99.90;;;;;;5023354;28;20431;-52
2024/02/19 01:40:18;;;;;;;23.70;8.85;;;8.40;99.90;;;;;;5021941;28;20033;-46
2024/02/19 01:42:44;;;;;;;22.92;8.85;;;8.40;99.90;;;;;;5018803;28;20037;-47
2024/02/19 01:45:28;;;;;;;25.05;8.40;;;8.40;99.90;;;;;;5021974;28;20045;-47
2024/02/19 01:47:55;;;;;;;20.70;8.18;;;8.30;99.90;;;;;;5021826;28;20082;-50
2024/02/19 01:50:22;;;;;;;25.33;8.55;;;8.30;99.90;;;;;;5024338;28;20480;-52
2024/02/19 01:52:49;;;;;;;25.95;8.00;;;8.30;99.90;;;;;;5027534;28;20025;-49
2024/02/19 01:55:16;;;;;;;16.73;7.32;;;8.30;99.90;;;;;;5025311;28;20026;-46
2024/02/19 01:57:44;;;;;;;12.55;5.38;;;8.30;99.90;;;;;;5023134;28;20052;-53
2024/02/19 02:00:11;;;;;;;20.10;6.10;;;8.20;99.90;;;;;;5019488;28;20053;-50
2024/02/19 02:02:37;;;;;;;23.92;7.65;;;8.20;99.90;;;;;;5022758;28;20029;-51
2024/02/19 02:05:03;;;;;;;26.75;6.18;;;8.20;99.90;;;;;;5020588;28;20048;-49
2024/02/19 02:07:29;;;;;;;21.13;5.32;;;8.20;99.90;;;;;;5019894;28;20589;-51
2024/02/19 02:09:57;;;;;;;11.80;3.55;;;8.20;99.90;;;;;;5020945;28;20113;-45
2024/02/19 02:12:23;;;;;;;12.30;5.05;;;8.10;99.90;;;;;;5024447;28;20685;-46
2024/02/19 02:14:49;;;;;;;17.85;3.60;;;8.10;99.90;;;;;;5020735;28;20041;-47
2024/02/19 02:17:14;;;;;;;15.38;3.22;;;8.10;99.90;;;;;;5020352;28;20033;-49
2024/02/19 02:19:41;;;;;;;24.35;4.90;;;8.10;99.90;;;;;;5020264;28;20021;-46
2024/02/19 02:22:07;;;;;;;8.55;2.60;;;8.00;99.90;;;;;;5021691;28;20495;-50
2024/02/19 02:24:33;;;;;;;20.30;4.00;;;8.00;99.90;;;;;;5025533;28;20034;-47
2024/02/19 02:26:58;;;;;;;12.90;3.17;;;7.90;99.90;;;;;;5007317;28;20517;-50
2024/02/19 02:29:24;;;;;;;16.45;3.20;;;7.90;99.90;;;;;;5022612;28;20101;-46
2024/02/19 02:31:50;;;;;;;22.67;4.72;;;7.90;99.90;;;;;;5029490;28;20021;-46
2024/02/19 02:34:15;;;;;;;20.75;3.33;;;7.80;99.90;;;;;;5028998;28;20033;-48
2024/02/19 02:36:41;;;;;;;20.80;4.43;;;7.80;99.90;;;;;;5030052;28;20045;-50
2024/02/19 02:39:07;;;;;;;12.43;3.35;;;7.90;99.90;;;;;;5026372;28;20104;-49
2024/02/19 02:41:33;;;;;;;13.40;3.95;;;7.80;99.90;;;;;;5024707;28;20436;-50
2024/02/19 02:43:59;;;;;;;23.95;4.07;;;7.80;99.90;;;;;;5028277;28;20364;-48
2024/02/19 02:46:24;;;;;;;10.50;3.03;;;7.80;99.90;;;;;;5027455;28;20021;-50
2024/02/19 02:48:50;;;;;;;12.38;2.63;;;7.80;99.90;;;;;;5020703;28;20029;-48
2024/02/19 02:51:15;;;;;;;22.48;3.75;;;7.80;99.90;;;;;;5029950;28;20029;-49
2024/02/19 02:53:41;;;;;;;12.38;3.42;;;7.80;99.90;;;;;;5030521;28;20523;-49
2024/02/19 02:56:06;;;;;;;23.92;5.15;;;7.80;99.90;;;;;;5030141;28;20514;-53
2024/02/19 02:58:33;;;;;;;21.67;4.22;;;7.80;99.90;;;;;;5025976;28;20058;-48
2024/02/19 03:01:00;;;;;;;21.08;4.30;;;7.80;99.90;;;;;;5030404;28;20115;-48
2024/02/19 03:03:27;;;;;;;21.85;4.72;;;7.80;99.90;;;;;;5023921;28;20037;-48
2024/02/19 03:05:52;;;;;;;18.02;5.82;;;7.80;99.90;;;;;;5027991;28;20026;-50
2024/02/19 03:08:18;;;;;;;20.70;3.65;;;7.80;99.90;;;;;;5030177;28;20438;-52
2024/02/19 03:10:44;;;;;;;24.85;4.40;;;7.80;99.90;;;;;;5021451;28;20430;-51
2024/02/19 03:13:10;;;;;;;13.23;3.40;;;7.80;99.90;;;;;;5029319;28;20045;-50
2024/02/19 03:15:35;;;;;;;19.98;3.95;;;7.80;99.90;;;;;;5026157;28;20022;-47
2024/02/19 03:18:01;;;;;;;26.10;3.60;;;7.80;99.90;;;;;;5030526;28;20029;-48
2024/02/19 03:20:28;;;;;;;14.68;3.50;;;7.80;99.90;;;;;;5025804;28;20033;-49
2024/02/19 03:22:54;;;;;;;17.73;3.83;;;7.80;99.90;;;;;;5026588;28;20029;-49
2024/02/19 03:25:19;;;;;;;13.23;3.22;;;7.80;99.90;;;;;;5028981;28;20491;-47
2024/02/19 03:27:46;;;;;;;21.90;3.85;;;7.80;99.90;;;;;;5016354;28;20041;-52
2024/02/19 03:30:12;;;;;;;10.95;2.50;;;7.80;99.90;;;;;;5018637;28;20037;-51
2024/02/19 03:32:38;;;;;;;13.23;2.03;;;7.70;99.90;;;;;;5022702;28;20033;-51
2024/02/19 03:35:03;;;;;;;16.27;2.25;;;7.70;99.90;;;;;;5027800;28;20025;-48
2024/02/19 03:37:29;;;;;;;16.48;2.90;;;7.70;99.90;;;;;;5023983;28;20026;-49
2024/02/19 03:39:55;;;;;;;22.65;2.97;;;7.70;99.90;;;;;;5029655;28;20035;-50
2024/02/19 03:42:20;;;;;;;15.13;2.78;;;7.70;99.90;;;;;;5027868;28;20030;-50
2024/02/19 03:44:46;;;;;;;18.48;2.70;;;7.70;99.90;;;;;;5029707;28;20116;-53
2024/02/19 03:47:12;;;;;;;9.95;3.03;;;7.60;99.90;;;;;;5029911;28;20494;-48
2024/02/19 03:49:38;;;;;;;8.20;2.55;;;7.70;99.90;;;;;;5022018;28;20112;-49
2024/02/19 03:52:04;;;;;;;18.58;3.30;;;7.70;99.90;;;;;;5023909;28;20111;-52
2024/02/19 03:54:30;;;;;;;10.90;2.55;;;7.60;99.90;;;;;;5029560;28;20118;-48
2024/02/19 03:56:56;;;;;;;18.15;2.13;;;7.60;99.90;;;;;;5019559;28;20022;-50
2024/02/19 03:59:22;;;;;;;13.93;2.30;;;7.60;99.90;;;;;;5025970;28;20061;-51
2024/02/19 04:01:49;;;;;;;10.30;2.33;;;7.60;99.90;;;;;;5025524;28;20029;-50
2024/02/19 04:04:17;;;;;;;13.27;2.25;;;7.60;99.90;;;;;;5025513;28;20116;-48
2024/02/19 04:06:42;;;;;;;21.60;3.75;;;7.60;99.90;;;;;;5024278;28;20063;-50
2024/02/19 04:09:08;;;;;;;11.57;2.90;;;7.60;99.90;;;;;;5027328;28;20020;-51
2024/02/19 04:11:34;;;;;;;8.23;1.92;;;7.60;99.90;;;;;;5027292;28;20029;-49
2024/02/19 04:14:00;;;;;;;20.92;2.72;;;7.60;99.90;;;;;;5020851;28;20122;-50
2024/02/19 04:16:25;;;;;;;13.30;2.55;;;7.60;99.90;;;;;;5026042;28;20030;-49
2024/02/19 04:18:51;;;;;;;22.10;4.25;;;7.60;99.90;;;;;;5022988;28;20083;-51
2024/02/19 04:21:16;;;;;;;17.40;2.33;;;7.60;99.90;;;;;;5022897;28;20026;-51
2024/02/19 04:23:42;;;;;;;16.98;2.67;;;7.60;99.90;;;;;;5024251;28;20041;-50
2024/02/19 04:26:07;;;;;;;18.90;2.33;;;7.60;99.90;;;;;;5027124;28;20025;-50
2024/02/19 04:28:33;;;;;;;17.75;3.72;;;7.60;99.90;;;;;;5011057;28;20161;-50
2024/02/19 04:30:58;;;;;;;19.55;2.53;;;7.60;99.90;;;;;;5020352;28;20097;-49
2024/02/19 04:33:24;;;;;;;17.60;1.95;;;7.60;99.90;;;;;;5024504;28;20030;-49
2024/02/19 04:35:49;;;;;;;11.27;1.88;;;7.60;99.90;;;;;;5029347;28;20025;-47
2024/02/19 04:38:15;;;;;;;16.25;3.05;;;7.60;99.90;;;;;;5029535;28;20036;-49
2024/02/19 04:40:41;;;;;;;11.10;1.92;;;7.60;99.90;;;;;;5028934;28;20506;-50
2024/02/19 04:43:06;;;;;;;16.33;2.88;;;7.60;99.90;;;;;;5024872;28;20495;-53
2024/02/19 04:45:32;;;;;;;13.35;2.70;;;7.60;99.90;;;;;;5024097;28;20041;-52
2024/02/19 04:47:57;;;;;;;13.90;2.03;;;7.60;99.90;;;;;;5028094;28;20028;-51
2024/02/19 04:50:23;;;;;;;10.95;1.50;;;7.60;99.90;;;;;;5032902;28;20032;-48
2024/02/19 04:52:48;;;;;;;9.98;2.40;;;7.60;99.90;;;;;;5032166;28;20565;-51
2024/02/19 04:55:14;;;;;;;19.75;2.00;;;7.50;99.90;;;;;;5028722;28;20034;-50
2024/02/19 04:57:40;;;;;;;13.18;1.95;;;7.50;99.90;;;;;;5031532;28;20100;-50
2024/02/19 05:00:06;;;;;;;14.77;1.83;;;7.60;99.90;;;;;;5023300;28;20030;-51
2024/02/19 05:02:31;;;;;;;17.23;3.03;;;7.60;99.90;;;;;;5032624;28;20029;-53
2024/02/19 05:04:57;;;;;;;9.63;2.00;;;7.60;99.90;;;;;;5032771;28;20029;-50
2024/02/19 05:07:22;;;;;;;12.05;2.08;;;7.60;99.90;;;;;;5032273;28;20353;-51
2024/02/19 05:09:48;;;;;;;13.85;2.33;;;7.50;99.90;;;;;;5030682;28;20531;-51
2024/02/19 05:12:13;;;;;;;9.07;1.80;;;7.60;99.90;;;;;;5032507;28;20368;-53
2024/02/19 05:14:39;;;;;;;15.88;2.90;;;7.60;99.90;;;;;;5032698;28;20041;-51
2024/02/19 05:17:05;;;;;;;14.60;2.33;;;7.60;99.90;;;;;;5027624;28;20109;-52
2024/02/19 05:19:30;;;;;;;10.25;2.58;;;7.60;99.90;;;;;;5032114;28;20512;-49
2024/02/19 05:21:56;;;;;;;13.07;2.22;;;7.60;99.90;;;;;;5022222;28;20041;-51
2024/02/19 05:24:22;;;;;;;12.95;1.60;;;7.60;99.90;;;;;;5027662;28;20033;-51
2024/02/19 05:26:47;;;;;;;14.52;1.55;;;7.50;99.90;;;;;;5027262;28;20021;-50
2024/02/19 05:29:13;;;;;;;12.77;2.25;;;7.60;99.90;;;;;;5009065;28;20061;-50
2024/02/19 05:31:39;;;;;;;9.52;2.05;;;7.60;99.90;;;;;;5020308;28;20068;-48
2024/02/19 05:34:06;;;;;;;15.88;2.63;;;7.50;99.90;;;;;;5029382;28;20034;-51
2024/02/19 05:36:33;;;;;;;9.80;1.55;;;7.60;99.90;;;;;;5028921;28;20103;-48
2024/02/19 05:38:59;;;;;;;12.38;2.00;;;7.60;99.90;;;;;;5026508;28;20111;-50
2024/02/19 05:41:25;;;;;;;13.20;1.80;;;7.50;99.90;;;;;;5030481;28;20060;-54
2024/02/19 05:43:51;;;;;;;11.82;1.77;;;7.50;99.90;;;;;;5024582;28;20025;-50
2024/02/19 05:46:17;;;;;;;23.60;2.15;;;7.50;99.90;;;;;;5026141;28;20048;-50
2024/02/19 05:48:43;;;;;;;8.05;1.55;;;7.50;99.90;;;;;;5023494;28;20027;-49
2024/02/19 05:51:10;;;;;;;15.45;1.98;;;7.50;99.90;;;;;;5028779;28;20423;-50
2024/02/19 05:53:36;;;;;;;16.20;2.22;;;7.50;99.90;;;;;;5027315;28;20032;-50
2024/02/19 05:56:05;;;;;;;13.82;2.15;;;7.50;99.90;;;;;;5027078;28;20041;-49
2024/02/19 05:58:31;;;;;;;15.52;2.08;;;7.50;99.90;;;;;;5025259;28;20037;-52
2024/02/19 06:00:57;;;;;;;16.92;2.92;;;7.50;99.90;;;;;;5025338;28;20080;-50
2024/02/19 06:03:26;;;;;;;11.90;1.90;;;7.50;99.90;;;;;;5024953;28;20029;-51
2024/02/19 06:05:53;;;;;;;15.00;2.60;;;7.50;99.90;;;;;;5025652;28;20064;-52
2024/02/19 06:08:18;;;;;;;13.45;2.28;;;7.50;99.90;;;;;;5025511;28;20517;-51
2024/02/19 06:10:47;;;;;;;15.25;2.55;;;7.50;99.90;;;;;;5024205;28;20479;-50
2024/02/19 06:13:13;;;;;;;10.88;2.35;;;7.50;99.90;;;;;;5028579;28;20025;-50
2024/02/19 06:15:39;;;;;;;16.52;2.28;;;7.50;99.90;;;;;;5025001;28;20036;-50
2024/02/19 06:18:05;;;;;;;15.15;2.50;;;7.50;99.90;;;;;;5026538;28;20029;-48
2024/02/19 06:20:31;;;;;;;7.57;2.40;;;7.50;99.90;;;;;;5021614;28;20061;-50
2024/02/19 06:22:57;;;;;;;14.13;2.60;;;7.50;99.90;;;;;;5026405;28;20426;-50
2024/02/19 06:25:22;;;;;;;14.20;2.10;;;7.50;99.90;;;;;;5024805;28;20036;-48
2024/02/19 06:27:48;;;;;;;19.88;2.95;;;7.50;99.90;;;;;;5023005;28;20083;-50
2024/02/19 06:30:14;;;;;;;10.05;2.63;;;7.50;99.90;;;;;;5002440;28;20040;-51
2024/02/19 06:32:40;;;;;;;12.60;2.28;;;7.50;99.90;;;;;;5025698;28;20041;-50
2024/02/19 06:35:05;;;;;;;13.98;2.97;;;7.50;99.90;;;;;;5027459;28;20036;-49
2024/02/19 06:37:31;;;;;;;14.45;3.10;;;7.50;99.90;;;;;;5026916;28;20039;-50
2024/02/19 06:39:57;;;;;;;12.93;3.20;;;7.50;99.90;;;;;;5026439;28;20036;-53
2024/02/19 06:42:22;;;;;;;18.15;2.95;;;7.50;99.90;;;;;;5029254;28;20415;-53
2024/02/19 06:44:48;;;;;;;12.35;2.28;;;7.60;99.90;;;;;;5027723;28;20117;-49
2024/02/19 06:47:13;;;;;;;21.75;3.05;;;7.60;99.90;;;;;;5028806;28;20535;-51
2024/02/19 06:49:39;;;;;;;29.50;4.25;;;7.60;99.90;;;;;;5030431;28;20045;-50
2024/02/19 06:52:05;;;;;;;14.55;2.72;;;7.60;99.90;;;;;;5029571;28;20030;-50
2024/02/19 06:54:30;;;;;;;9.27;2.22;;;7.60;99.90;;;;;;5027087;28;20033;-49
2024/02/19 06:56:56;;;;;;;16.30;2.30;;;7.60;99.90;;;;;;5024736;28;20021;-48
2024/02/19 06:59:22;;;;;;;16.30;3.70;;;7.60;99.90;;;;;;5030288;28;20037;-46
2024/02/19 07:01:47;;;;;;;22.85;4.13;;;7.60;99.90;;;;;;5023799;28;20533;-50
2024/02/19 07:04:13;;;;;;;14.52;3.67;;;7.70;99.90;;;;;;5029483;28;20029;-49
2024/02/19 07:06:39;;;;;;;14.27;2.83;;;7.70;99.90;;;;;;5024091;28;20624;-48
2024/02/19 07:09:05;;;;;;;14.32;2.47;;;7.70;99.90;;;;;;5030587;28;20044;-49
2024/02/19 07:11:30;;;;;;;14.30;3.08;;;7.70;99.90;;;;;;5020916;28;20052;-53
2024/02/19 07:13:56;;;;;;;19.52;4.22;;;7.80;99.90;;;;;;5023947;28;20037;-51
2024/02/19 07:16:22;;;;;;;16.23;3.05;;;7.80;99.90;;;;;;5027897;28;20037;-50
2024/02/19 07:18:51;;;;;;;13.50;2.78;;;7.80;99.90;;;;;;5023320;28;20109;-49
2024/02/19 07:21:20;;;;;;;13.77;3.60;;;7.90;99.90;;;;;;5024379;28;20049;-49
2024/02/19 07:23:46;;;;;;;18.40;2.60;;;7.90;99.90;;;;;;5029629;28;20554;-50
2024/02/19 07:26:12;;;;;;;15.00;2.55;;;7.90;99.90;;;;;;5025700;28;20113;-49
2024/02/19 07:28:37;;;;;;;14.40;2.65;;;7.90;99.90;;;;;;5029928;28;20399;-50
2024/02/19 07:31:03;;;;;;;9.98;3.13;;;7.90;99.90;;;;;;5006652;28;20050;-51
2024/02/19 07:33:28;;;;;;;18.08;2.88;;;8.00;99.90;;;;;;5024084;28;20036;-50
2024/02/19 07:35:54;;;;;;;6.70;2.90;;;8.10;99.90;;;;;;5029883;28;20412;-50
2024/02/19 07:38:20;;;;;;;16.98;3.40;;;8.10;99.90;;;;;;5022277;28;20033;-48
2024/02/19 07:40:46;;;;;;;16.25;3.38;;;8.20;99.90;;;;;;5026811;28;20032;-47
2024/02/19 07:43:12;;;;;;;21.45;2.60;;;8.20;99.90;;;;;;5025940;28;20034;-50
2024/02/19 07:45:38;;;;;;;12.95;2.05;;;8.20;99.90;;;;;;5029842;28;20092;-49
2024/02/19 07:48:06;;;;;;;13.60;2.03;;;8.20;99.90;;;;;;5030438;28;20029;-48
2024/02/19 07:50:33;;;;;;;7.10;1.92;;;8.30;99.90;;;;;;5017255;28;20018;-49
2024/02/19 07:52:58;;;;;;;15.40;2.78;;;8.40;99.90;;;;;;5029066;28;20024;-50
2024/02/19 07:55:25;;;;;;;12.00;2.58;;;8.50;99.90;;;;;;5029785;28;20428;-51
2024/02/19 07:57:51;;;;;;;7.22;2.60;;;8.50;99.90;;;;;;5026261;28;20164;-50
2024/02/19 08:00:17;;;;;;;8.43;2.70;;;8.50;99.90;;;;;;5025394;28;20474;-50
2024/02/19 08:02:42;;;;;;;18.52;2.88;;;8.50;99.90;;;;;;5030571;28;20502;-48
2024/02/19 08:05:08;;;;;;;15.10;3.53;;;8.60;99.90;;;;;;5029045;28;20022;-50
2024/02/19 08:07:34;;;;;;;11.02;2.50;;;8.50;99.90;;;;;;5026313;28;20749;-50
2024/02/19 08:09:59;;;;;;;14.98;3.15;;;8.50;99.90;;;;;;5028672;28;20025;-49
2024/02/19 08:12:25;;;;;;;8.45;1.92;;;8.50;99.90;;;;;;5029643;28;20025;-48
2024/02/19 08:14:50;;;;;;;24.58;4.22;;;8.50;99.90;;;;;;5027846;28;20029;-50
2024/02/19 08:17:17;;;;;;;13.88;3.03;;;8.50;99.90;;;;;;5031528;28;20018;-51
2024/02/19 08:19:43;;;;;;;13.48;3.65;;;8.50;99.90;;;;;;5032059;28;20037;-50
2024/02/19 08:22:09;;;;;;;9.48;3.15;;;8.50;99.90;;;;;;5033450;28;20379;-49
2024/02/19 08:24:36;;;;;;;11.20;3.85;;;8.50;99.90;;;;;;5032775;28;20487;-48
2024/02/19 08:27:02;;;;;;;12.32;3.63;;;8.50;99.90;;;;;;5032821;28;20112;-50
2024/02/19 08:29:29;;;;;;;11.70;3.97;;;8.50;99.90;;;;;;5022509;28;20511;-47
2024/02/19 08:31:54;;;;;;;13.90;2.50;;;8.50;99.90;;;;;;5018940;28;20038;-49
2024/02/19 08:34:20;;;;;;;9.77;2.92;;;8.60;99.90;;;;;;5030246;28;20030;-48
2024/02/19 08:36:46;;;;;;;8.75;2.85;;;8.70;99.90;;;;;;5026257;28;20042;-50
2024/02/19 08:39:11;;;;;;;13.93;3.60;;;8.70;99.90;;;;;;5014501;28;20076;-50
2024/02/19 08:41:37;;;;;;;11.98;3.33;;;8.80;99.90;;;;;;5014198;28;20026;-50
2024/02/19 08:44:02;;;;;;;14.82;3.13;;;8.90;99.90;;;;;;5014186;28;20377;-48
2024/02/19 08:46:28;;;;;;;15.15;3.45;;;9.10;99.90;;;;;;5014050;28;20049;-50
2024/02/19 08:48:55;;;;;;;18.40;3.33;;;9.10;99.90;;;;;;5014108;28;20022;-49
2024/02/19 08:51:20;;;;;;;9.23;3.17;;;9.20;99.90;;;;;;5014037;28;20026;-52
2024/02/19 08:53:46;;;;;;;18.85;3.03;;;9.40;99.90;;;;;;5013952;28;20053;-50
2024/02/19 08:56:12;;;;;;;14.02;2.75;;;9.40;99.90;;;;;;5013725;28;20033;-50
2024/02/19 08:58:37;;;;;;;10.27;3.30;;;9.60;99.90;;;;;;5013816;28;20449;-50
2024/02/19 09:01:06;;;;;;;13.63;3.20;;;9.70;99.90;;;;;;5013578;28;20026;-49
2024/02/19 09:03:31;;;;;;;14.95;2.88;;;9.70;99.90;;;;;;5013712;28;20037;-50
2024/02/19 09:05:57;;;;;;;12.70;3.25;;;9.70;99.90;;;;;;5013558;28;20018;-48
2024/02/19 09:08:23;;;;;;;16.75;3.55;;;9.90;99.90;;;;;;5013458;28;20057;-52
2024/02/19 09:10:48;;;;;;;13.40;3.22;;;9.80;99.90;;;;;;5013615;28;20465;-50
2024/02/19 09:13:14;;;;;;;14.95;2.97;;;9.80;99.90;;;;;;5013512;28;20046;-50
2024/02/19 09:15:39;;;;;;;11.68;3.35;;;9.80;99.90;;;;;;5013322;28;20038;-50
2024/02/19 09:18:05;;;;;;;16.35;3.95;;;9.90;99.90;;;;;;5013446;28;20032;-50
2024/02/19 09:20:30;;;;;;;29.08;10.52;;;10.10;99.90;;;;;;5013191;28;20108;-50
2024/02/19 09:22:56;;;;;;;27.55;9.18;;;10.20;99.90;;;;;;5012521;28;20021;-51
2024/02/19 09:25:23;;;;;;;17.40;8.00;;;10.20;99.90;;;;;;5013210;28;20030;-49
2024/02/19 09:27:49;;;;;;;11.40;3.03;;;10.20;99.90;;;;;;5012594;28;20041;-49
2024/02/19 09:30:15;;;;;;;16.08;4.18;;;10.30;99.90;;;;;;4999597;28;20628;-48
2024/02/19 09:32:41;;;;;;;19.80;6.05;;;10.40;99.90;;;;;;5013079;28;20018;-49
2024/02/19 09:35:07;;;;;;;16.38;4.72;;;10.50;99.90;;;;;;5013138;28;20036;-48
2024/02/19 09:37:32;;;;;;;16.30;5.63;;;10.40;99.90;;;;;;5012902;28;20073;-48
2024/02/19 09:39:58;;;;;;;15.80;6.13;;;10.40;99.90;;;;;;5013117;28;20025;-52
2024/02/19 09:42:28;;;;;;;15.13;6.88;;;10.30;99.90;;;;;;5013227;28;20112;-52
2024/02/19 09:44:54;;;;;;;17.38;4.13;;;10.20;99.90;;;;;;5012792;28;20480;-51
2024/02/19 09:47:20;;;;;;;18.92;4.15;;;10.30;99.90;;;;;;5012571;28;20071;-50
2024/02/19 09:49:48;;;;;;;11.32;3.35;;;10.20;99.90;;;;;;5013128;28;20108;-51
2024/02/19 09:52:24;;;;;;;22.75;5.38;;;10.20;99.90;;;;;;5012650;28;20120;-50
2024/02/19 09:54:50;;;;;;;15.20;4.05;;;10.20;99.90;;;;;;5012934;28;20041;-50
2024/02/19 09:57:21;;;;;;;48.03;14.15;;;10.20;99.90;;;;;;5012337;28;20045;-49
2024/02/19 09:59:48;;;;;;;106.75;37.83;;;10.20;99.90;;;;;;5012623;28;20030;-52
2024/02/19 10:02:18;;;;;;;100.22;34.05;;;10.20;99.90;;;;;;5012456;28;20040;-50
2024/02/19 10:04:45;;;;;;;72.32;30.45;;;10.20;99.90;;;;;;5012334;28;20072;-50
2024/02/19 10:07:11;;;;;;;21.05;9.43;;;10.30;99.90;;;;;;5012254;28;20025;-50
2024/02/19 10:09:36;;;;;;;27.48;9.43;;;10.40;99.90;;;;;;5012620;28;20022;-47
2024/02/19 10:12:02;;;;;;;20.60;6.43;;;10.50;99.90;;;;;;5012362;28;20392;-51
2024/02/19 10:14:28;;;;;;;14.63;5.32;;;10.80;99.90;;;;;;5012469;28;20634;-49
2024/02/19 10:16:55;;;;;;;63.55;23.52;;;11.00;99.90;;;;;;5011905;28;20034;-50
2024/02/19 10:19:20;;;;;;;40.72;16.23;;;11.10;99.90;;;;;;5012387;28;20025;-50
2024/02/19 10:26:03;;;;;;;30.25;6.80;;;11.50;99.90;;;;;;5000679;28;20036;-50
2024/02/19 10:28:31;;;;;;;21.83;8.25;;;11.90;99.90;;;;;;4987981;28;20049;-50
2024/02/19 10:34:19;;;;;;;28.63;14.70;;;12.30;99.90;;;;;;4998412;28;20127;-50
2024/02/19 10:36:45;;;;;;;43.00;16.77;;;12.40;99.90;;;;;;5021812;28;20034;-51
2024/02/19 10:39:11;;;;;;;48.75;21.77;;;12.20;99.90;;;;;;5011314;28;20498;-51
2024/02/19 10:41:38;;;;;;;26.17;12.65;;;12.20;99.90;;;;;;5011402;28;20096;-50
2024/02/19 10:44:04;;;;;;;20.15;8.18;;;12.10;99.90;;;;;;5011649;28;20060;-50
2024/02/19 10:46:31;;;;;;;15.82;4.32;;;12.10;99.90;;;;;;5011789;28;20022;-50
2024/02/19 10:48:58;;;;;;;11.10;4.68;;;12.10;99.90;;;;;;5035839;23;20080;-82
2024/02/19 10:51:24;;;;;;;14.63;4.82;;;12.00;99.90;;;;;;5051455;28;20511;-83
2024/02/19 10:54:01;;;;;;;23.35;7.18;;;12.00;99.90;;;;;;5055906;28;20025;-82
2024/02/19 10:56:38;;;;;;;17.65;5.45;;;11.80;99.90;;;;;;5053210;28;20106;-82
2024/02/19 10:59:06;;;;;;;17.42;5.47;;;11.80;99.90;;;;;;5067147;28;20095;-82
2024/02/19 11:01:44;;;;;;;13.10;4.13;;;11.70;99.90;;;;;;5051014;28;20489;-82
2024/02/19 11:04:16;;;;;;;32.13;10.18;;;11.60;99.90;;;;;;5061127;23;20086;-46
2024/02/19 11:06:48;;;;;;;28.15;7.00;;;11.50;99.90;;;;;;5051329;28;20064;-45
2024/02/19 11:09:14;;;;;;;26.23;7.35;;;11.60;99.90;;;;;;5051256;28;20035;-46
2024/02/19 11:11:51;;;;;;;13.18;4.90;;;11.50;99.90;;;;;;5051060;28;20029;-46
2024/02/19 11:14:21;;;;;;;19.67;5.70;;;11.50;99.90;;;;;;5051228;28;20021;-47
2024/02/19 11:16:47;;;;;;;15.85;4.93;;;11.40;99.90;;;;;;5051214;28;20035;-45
2024/02/19 11:19:13;;;;;;;13.05;3.83;;;11.40;99.90;;;;;;5050861;28;20487;-46
2024/02/19 11:21:38;;;;;;;12.27;4.22;;;11.40;99.90;;;;;;5050906;28;20048;-47
2024/02/19 11:24:07;;;;;;;22.17;5.75;;;11.40;99.90;;;;;;5051076;28;20402;-45
2024/02/19 11:26:32;;;;;;;18.08;5.97;;;11.30;99.90;;;;;;5050955;28;20482;-47
2024/02/19 11:28:58;;;;;;;17.88;5.78;;;11.40;99.90;;;;;;5050892;28;20022;-48
2024/02/19 11:31:24;;;;;;;28.35;8.60;;;11.30;99.90;;;;;;5036981;28;20028;-47
2024/02/19 11:33:50;;;;;;;11.07;4.28;;;11.30;99.90;;;;;;5051218;28;20471;-46
2024/02/19 11:36:17;;;;;;;17.83;4.88;;;11.20;99.90;;;;;;5050971;28;20033;-46
2024/02/19 11:38:42;;;;;;;15.10;4.53;;;11.20;99.90;;;;;;5050824;28;20040;-45
2024/02/19 11:41:09;;;;;;;13.32;5.25;;;11.20;99.90;;;;;;5050850;28;20029;-47
2024/02/19 11:43:36;;;;;;;12.43;3.83;;;11.30;99.90;;;;;;5050663;28;20079;-43
2024/02/19 11:46:02;;;;;;;19.13;6.20;;;11.30;99.90;;;;;;5050649;28;20025;-44
2024/02/19 11:48:29;;;;;;;11.63;4.60;;;11.30;99.90;;;;;;5050905;28;20026;-45
2024/02/19 11:50:55;;;;;;;16.45;4.60;;;11.40;99.90;;;;;;5053890;28;20107;-50
2024/02/19 11:53:21;;;;;;;18.48;5.65;;;11.50;99.90;;;;;;5054936;28;20055;-49
2024/02/19 11:56:00;;;;;;;19.63;4.93;;;11.50;99.90;;;;;;5054554;28;20037;-50
2024/02/19 11:58:30;;;;;;;14.18;4.93;;;11.50;99.90;;;;;;5055098;28;20491;-46
2024/02/19 12:01:00;;;;;;;11.13;4.95;;;11.70;99.90;;;;;;5054773;28;20044;-46
2024/02/19 12:03:26;;;;;;;19.15;6.82;;;11.60;99.90;;;;;;5054651;28;20119;-49
2024/02/19 12:05:53;;;;;;;22.08;6.20;;;11.60;99.90;;;;;;5054403;28;20036;-46
2024/02/19 12:08:18;;;;;;;14.13;5.82;;;11.50;99.90;;;;;;5054826;28;20398;-47
2024/02/19 12:10:44;;;;;;;18.90;8.02;;;11.40;99.90;;;;;;5054261;28;20051;-44
2024/02/19 12:13:10;;;;;;;16.42;6.35;;;11.30;99.90;;;;;;5054558;28;20475;-45
2024/02/19 12:15:35;;;;;;;17.85;6.30;;;11.30;99.90;;;;;;5054623;28;20502;-48
2024/02/19 12:18:01;;;;;;;17.10;6.28;;;11.30;99.90;;;;;;5054362;28;20021;-44
2024/02/19 12:20:26;;;;;;;15.65;6.07;;;11.30;99.90;;;;;;5054284;28;20107;-47
2024/02/19 12:22:52;;;;;;;20.90;6.38;;;11.30;99.90;;;;;;5050337;28;20164;-44
2024/02/19 12:25:17;;;;;;;23.98;7.15;;;11.20;99.90;;;;;;5034565;28;20463;-46
2024/02/19 12:27:43;;;;;;;22.40;6.97;;;11.20;99.90;;;;;;5034955;28;20109;-46
2024/02/19 12:30:09;;;;;;;19.67;5.45;;;11.10;99.90;;;;;;5034195;28;20030;-45
2024/02/19 12:32:35;;;;;;;17.23;6.30;;;11.00;99.90;;;;;;5010773;28;20042;-46
2024/02/19 12:35:01;;;;;;;18.45;5.95;;;11.00;99.90;;;;;;5032338;28;20915;-44
2024/02/19 12:37:28;;;;;;;18.80;5.20;;;11.00;99.90;;;;;;5034072;28;20106;-45
2024/02/19 12:39:54;;;;;;;19.23;5.38;;;11.00;99.90;;;;;;5034149;28;20034;-46
2024/02/19 12:42:22;;;;;;;18.33;5.15;;;11.00;99.90;;;;;;5033769;28;20091;-47
2024/02/19 12:44:47;;;;;;;26.92;7.65;;;11.10;99.90;;;;;;5033646;28;20041;-48
2024/02/19 12:47:13;;;;;;;15.23;5.07;;;11.30;99.90;;;;;;5033809;28;20100;-46
2024/02/19 12:49:38;;;;;;;17.63;4.72;;;11.20;99.90;;;;;;5033704;28;20100;-46
2024/02/19 12:52:04;;;;;;;26.48;6.55;;;11.20;99.90;;;;;;5033595;28;20026;-47
2024/02/19 12:54:30;;;;;;;20.35;5.78;;;11.20;99.90;;;;;;5032211;28;20029;-44
2024/02/19 12:56:56;;;;;;;25.75;6.65;;;11.20;99.90;;;;;;5033324;28;20083;-45
2024/02/19 12:59:25;;;;;;;18.60;5.47;;;11.20;99.90;;;;;;5033681;28;20025;-45
2024/02/19 13:01:51;;;;;;;18.83;4.60;;;11.30;99.90;;;;;;5033322;28;20056;-44